createdAt,value
2018-09-15T00:00:58.880Z,100.00
2018-09-15T00:03:27.892Z,100.00
2018-09-15T00:05:56.892Z,100.00
2018-09-15T00:08:25.842Z,100.00
2018-09-15T00:10:54.858Z,100.00
2018-09-15T00:13:24.577Z,100.00
2018-09-15T00:15:53.549Z,100.00
2018-09-15T00:18:22.537Z,100.00
2018-09-15T00:20:51.576Z,100.00
2018-09-15T00:23:20.555Z,100.00
2018-09-15T00:25:49.604Z,100.00
2018-09-15T00:28:18.667Z,100.00
2018-09-15T00:30:47.612Z,100.00
2018-09-15T00:33:16.658Z,100.00
2018-09-15T00:35:45.609Z,100.00
2018-09-15T00:38:14.549Z,100.00
2018-09-15T00:40:43.521Z,100.00
2018-09-15T00:43:12.464Z,100.00
2018-09-15T00:45:41.544Z,100.00
2018-09-15T00:48:10.491Z,100.00
2018-09-15T00:50:39.437Z,100.00
2018-09-15T00:53:08.390Z,100.00
2018-09-15T00:55:37.395Z,100.00
2018-09-15T00:58:06.351Z,100.00
2018-09-15T01:00:35.323Z,100.00
2018-09-15T01:03:04.354Z,100.00
2018-09-15T01:05:33.309Z,100.00
2018-09-15T01:08:02.263Z,100.00
2018-09-15T01:10:31.223Z,100.00
2018-09-15T01:13:00.296Z,100.00
2018-09-15T01:15:29.239Z,100.00
2018-09-15T01:17:58.236Z,100.00
2018-09-15T01:20:27.168Z,100.00
2018-09-15T01:22:56.099Z,100.00
2018-09-15T01:25:25.083Z,100.00
2018-09-15T01:27:54.015Z,100.00
2018-09-15T01:30:23.019Z,100.00
2018-09-15T01:32:51.991Z,100.00
2018-09-15T01:35:20.992Z,100.00
2018-09-15T01:37:49.941Z,100.00
2018-09-15T01:40:18.903Z,100.00
2018-09-15T01:42:47.832Z,100.00
2018-09-15T01:45:16.839Z,100.00
2018-09-15T01:47:45.784Z,100.00
2018-09-15T01:50:14.728Z,100.00
2018-09-15T01:52:43.678Z,100.00
2018-09-15T01:55:13.590Z,100.00
2018-09-15T01:57:42.643Z,100.00
2018-09-15T02:00:11.528Z,100.00
2018-09-15T02:02:40.499Z,100.00
2018-09-15T02:05:09.477Z,100.00
2018-09-15T02:07:38.577Z,100.00
2018-09-15T02:10:07.535Z,100.00
2018-09-15T02:12:36.485Z,100.00
2018-09-15T02:15:05.940Z,100.00
2018-09-15T02:17:34.903Z,100.00
2018-09-15T02:20:03.860Z,100.00
2018-09-15T02:22:32.812Z,99.69
2018-09-15T02:25:01.765Z,99.39
2018-09-15T02:27:31.088Z,99.22
2018-09-15T02:30:00.111Z,99.75
2018-09-15T02:32:29.070Z,99.33
2018-09-15T02:34:58.107Z,99.42
2018-09-15T02:37:27.103Z,99.37
2018-09-15T02:39:56.071Z,99.36
2018-09-15T02:42:25.050Z,99.42
2018-09-15T02:44:54.014Z,99.10
2018-09-15T02:47:22.978Z,98.38
2018-09-15T02:49:51.922Z,98.75
2018-09-15T02:52:20.928Z,98.55
2018-09-15T02:54:49.874Z,98.25
2018-09-15T02:57:18.863Z,98.70
2018-09-15T02:59:47.816Z,99.37
2018-09-15T03:02:16.777Z,98.13
2018-09-15T03:04:45.740Z,98.49
2018-09-15T03:07:14.675Z,98.56
2018-09-15T03:09:43.636Z,96.97
2018-09-15T03:12:12.619Z,97.87
2018-09-15T03:14:41.607Z,98.77
2018-09-15T03:17:10.588Z,99.49
2018-09-15T03:19:39.577Z,99.54
2018-09-15T03:22:08.681Z,100.00
2018-09-15T03:24:37.629Z,100.00
2018-09-15T03:27:06.599Z,100.00
2018-09-15T03:29:35.573Z,100.00
2018-09-15T03:32:04.531Z,100.00
2018-09-15T03:34:33.501Z,100.00
2018-09-15T03:37:02.543Z,100.00
2018-09-15T03:39:31.528Z,100.00
2018-09-15T03:42:00.517Z,100.00
2018-09-15T03:44:29.472Z,100.00
2018-09-15T03:46:58.442Z,100.00
2018-09-15T03:49:27.435Z,100.00
2018-09-15T03:51:56.385Z,100.00
2018-09-15T03:54:25.343Z,100.00
2018-09-15T03:56:54.271Z,100.00
2018-09-15T03:59:23.305Z,100.00
2018-09-15T04:01:52.268Z,100.00
2018-09-15T04:04:21.244Z,100.00
2018-09-15T04:06:50.244Z,100.00
2018-09-15T04:09:19.219Z,100.00
2018-09-15T04:11:48.176Z,100.00
2018-09-15T04:14:17.141Z,100.00
2018-09-15T04:16:46.112Z,100.00
2018-09-15T04:19:15.094Z,100.00
2018-09-15T04:21:44.118Z,100.00
2018-09-15T04:24:13.121Z,100.00
2018-09-15T04:26:42.065Z,100.00
2018-09-15T04:29:11.054Z,100.00
2018-09-15T04:31:40.000Z,100.00
2018-09-15T04:34:09.010Z,99.54
2018-09-15T04:36:37.971Z,97.05
2018-09-15T04:39:10.065Z,96.37
2018-09-15T04:41:39.055Z,94.76
2018-09-15T04:44:08.197Z,91.38
2018-09-15T04:46:37.160Z,90.74
2018-09-15T04:49:06.451Z,89.46
2018-09-15T04:51:35.432Z,88.07
2018-09-15T04:54:04.376Z,88.84
2018-09-15T04:56:33.373Z,88.75
2018-09-15T04:59:02.355Z,88.68
2018-09-15T05:01:31.321Z,88.58
2018-09-15T05:04:00.296Z,89.27
2018-09-15T05:06:29.358Z,90.91
2018-09-15T05:08:58.334Z,90.93
2018-09-15T05:11:27.317Z,91.00
2018-09-15T05:13:56.275Z,90.78
2018-09-15T05:16:25.211Z,90.78
2018-09-15T05:18:54.183Z,88.07
2018-09-15T05:21:23.150Z,85.45
2018-09-15T05:23:52.098Z,86.26
2018-09-15T05:26:21.039Z,85.31
2018-09-15T05:28:50.032Z,84.87
2018-09-15T05:31:19.027Z,82.49
2018-09-15T05:33:48.301Z,80.40
2018-09-15T05:36:17.280Z,76.77
2018-09-15T05:38:46.251Z,76.02
2018-09-15T05:41:15.229Z,77.16
2018-09-15T05:43:44.191Z,77.77
2018-09-15T05:46:13.243Z,76.62
2018-09-15T05:48:42.207Z,75.61
2018-09-15T05:51:11.145Z,74.51
2018-09-15T05:53:40.111Z,73.46
2018-09-15T05:56:09.106Z,71.26
2018-09-15T05:58:38.068Z,69.92
2018-09-15T06:01:07.503Z,68.13
2018-09-15T06:03:36.491Z,70.26
2018-09-15T06:06:05.477Z,71.66
2018-09-15T06:08:34.495Z,70.48
2018-09-15T06:11:03.460Z,68.43
2018-09-15T06:13:32.465Z,68.77
2018-09-15T06:16:01.518Z,69.21
2018-09-15T06:18:30.492Z,66.35
2018-09-15T06:20:59.456Z,66.47
2018-09-15T06:23:28.435Z,64.99
2018-09-15T06:25:57.435Z,64.46
2018-09-15T06:28:26.406Z,65.77
2018-09-15T06:30:55.531Z,63.51
2018-09-15T06:33:24.658Z,63.15
2018-09-15T06:35:53.635Z,64.38
2018-09-15T06:38:22.636Z,63.57
2018-09-15T06:40:51.624Z,65.27
2018-09-15T06:43:20.679Z,63.79
2018-09-15T06:45:49.796Z,64.04
2018-09-15T06:48:18.856Z,64.15
2018-09-15T06:50:47.847Z,63.28
2018-09-15T06:53:16.936Z,62.58
2018-09-15T06:55:45.907Z,63.85
2018-09-15T06:58:14.876Z,62.30
2018-09-15T07:00:43.885Z,61.54
2018-09-15T07:03:12.845Z,59.70
2018-09-15T07:05:41.835Z,60.21
2018-09-15T07:08:11.055Z,59.06
2018-09-15T07:10:40.029Z,60.54
2018-09-15T07:13:09.030Z,61.35
2018-09-15T07:15:38.011Z,62.62
2018-09-15T07:18:07.457Z,59.76
2018-09-15T07:20:36.408Z,61.19
2018-09-15T07:23:05.527Z,58.11
2018-09-15T07:25:34.511Z,59.14
2018-09-15T07:28:03.523Z,60.38
2018-09-15T07:30:32.507Z,59.23
2018-09-15T07:33:01.558Z,58.80
2018-09-15T07:35:30.544Z,58.24
2018-09-15T07:37:59.579Z,59.22
2018-09-15T07:40:28.552Z,59.18
2018-09-15T07:42:57.510Z,56.92
2018-09-15T07:45:26.480Z,57.24
2018-09-15T07:47:55.440Z,56.45
2018-09-15T07:50:24.412Z,54.78
2018-09-15T07:52:53.395Z,56.15
2018-09-15T07:55:22.417Z,55.90
2018-09-15T07:57:51.527Z,54.61
2018-09-15T08:00:20.454Z,54.33
2018-09-15T08:02:49.441Z,53.18
2018-09-15T08:05:18.391Z,53.80
2018-09-15T08:07:47.407Z,53.19
2018-09-15T08:10:16.363Z,53.14
2018-09-15T08:12:45.408Z,52.98
2018-09-15T08:15:14.387Z,53.58
2018-09-15T08:17:43.355Z,50.98
2018-09-15T08:20:12.455Z,50.51
2018-09-15T08:22:41.417Z,51.19
2018-09-15T08:25:10.707Z,49.73
2018-09-15T08:27:39.668Z,51.29
2018-09-15T08:30:08.735Z,48.77
2018-09-15T08:32:37.697Z,50.24
2018-09-15T08:35:06.694Z,47.76
2018-09-15T08:37:35.701Z,46.67
2018-09-15T08:40:04.654Z,46.48
2018-09-15T08:42:33.621Z,44.67
2018-09-15T08:45:02.659Z,46.60
2018-09-15T08:47:32.493Z,45.55
2018-09-15T08:50:01.559Z,47.08
2018-09-15T08:52:30.582Z,45.72
2018-09-15T08:54:59.652Z,45.01
2018-09-15T08:57:28.647Z,43.52
2018-09-15T08:59:57.619Z,43.73
2018-09-15T09:02:26.560Z,44.79
2018-09-15T09:04:55.555Z,42.83
2018-09-15T09:07:24.559Z,42.11
2018-09-15T09:09:53.609Z,42.47
2018-09-15T09:12:23.398Z,41.59
2018-09-15T09:14:54.135Z,40.28
2018-09-15T09:17:23.159Z,39.49
2018-09-15T09:19:52.385Z,39.58
2018-09-15T09:22:21.695Z,38.79
2018-09-15T09:24:50.653Z,38.11
2018-09-15T09:27:19.663Z,40.07
2018-09-15T09:29:48.684Z,40.34
2018-09-15T09:32:18.649Z,39.15
2018-09-15T09:34:47.670Z,37.86
2018-09-15T09:37:16.659Z,39.76
2018-09-15T09:39:45.782Z,40.30
2018-09-15T09:42:14.882Z,38.90
2018-09-15T09:44:44.104Z,37.52
2018-09-15T09:47:13.928Z,37.53
2018-09-15T09:49:43.216Z,37.03
2018-09-15T09:52:12.524Z,36.23
2018-09-15T09:54:42.434Z,35.90
2018-09-15T09:57:11.428Z,34.74
2018-09-15T09:59:40.389Z,33.98
2018-09-15T10:02:13.350Z,33.91
2018-09-15T10:04:42.776Z,33.59
2018-09-15T10:07:11.808Z,33.82
2018-09-15T10:09:41.191Z,34.20
2018-09-15T10:12:10.208Z,33.75
2018-09-15T10:14:39.156Z,33.33
2018-09-15T10:17:08.177Z,32.31
2018-09-15T10:19:37.157Z,32.95
2018-09-15T10:22:06.140Z,33.49
2018-09-15T10:24:35.251Z,32.86
2018-09-15T10:27:04.344Z,32.99
2018-09-15T10:29:33.335Z,30.99
2018-09-15T10:32:02.328Z,29.75
2018-09-15T10:34:31.293Z,31.65
2018-09-15T10:37:00.291Z,28.98
2018-09-15T10:39:29.341Z,29.16
2018-09-15T10:41:58.316Z,29.83
2018-09-15T10:44:27.260Z,29.40
2018-09-15T10:46:56.228Z,28.85
2018-09-15T10:49:25.199Z,27.08
2018-09-15T10:51:54.167Z,26.16
2018-09-15T10:54:23.128Z,26.42
2018-09-15T10:56:52.089Z,28.88
2018-09-15T10:59:21.046Z,27.43
2018-09-15T11:01:50.133Z,26.92
2018-09-15T11:04:19.136Z,25.68
2018-09-15T11:06:48.107Z,24.57
2018-09-15T11:09:17.073Z,25.68
2018-09-15T11:11:46.048Z,24.44
2018-09-15T11:14:15.021Z,24.28
2018-09-15T11:16:48.458Z,25.03
2018-09-15T11:19:17.415Z,24.03
2018-09-15T11:21:46.377Z,22.49
2018-09-15T11:24:16.200Z,22.53
2018-09-15T11:26:45.172Z,23.12
2018-09-15T11:29:14.183Z,23.31
2018-09-15T11:31:43.158Z,21.76
2018-09-15T11:34:12.221Z,21.56
2018-09-15T11:36:41.208Z,22.15
2018-09-15T11:39:11.934Z,20.53
2018-09-15T11:41:41.095Z,20.75
2018-09-15T11:44:10.040Z,21.60
2018-09-15T11:46:39.167Z,21.49
2018-09-15T11:49:08.103Z,19.81
2018-09-15T11:51:37.080Z,19.49
2018-09-15T11:54:06.064Z,19.64
2018-09-15T11:56:35.030Z,19.15
2018-09-15T11:59:04.015Z,19.69
2018-09-15T12:01:32.960Z,19.39
2018-09-15T12:04:01.923Z,19.75
2018-09-15T12:06:30.866Z,20.96
2018-09-15T12:08:59.883Z,19.77
2018-09-15T12:11:28.819Z,19.99
2018-09-15T12:13:57.763Z,20.23
2018-09-15T12:16:26.785Z,20.45
2018-09-15T12:18:55.739Z,20.48
2018-09-15T12:21:24.748Z,20.75
2018-09-15T12:23:53.722Z,21.50
2018-09-15T12:26:22.717Z,20.66
2018-09-15T12:28:51.656Z,21.12
2018-09-15T12:31:20.688Z,22.39
2018-09-15T12:33:49.628Z,23.67
2018-09-15T12:36:18.620Z,25.06
2018-09-15T12:38:47.606Z,25.92
2018-09-15T12:41:16.611Z,26.33
2018-09-15T12:43:47.801Z,27.67
2018-09-15T12:46:16.777Z,29.16
2018-09-15T12:48:45.776Z,29.77
2018-09-15T12:51:14.740Z,30.03
2018-09-15T12:53:43.941Z,30.63
2018-09-15T12:56:12.913Z,29.23
2018-09-15T12:58:41.899Z,28.61
2018-09-15T13:01:10.914Z,29.81
2018-09-15T13:03:39.988Z,30.21
2018-09-15T13:06:09.007Z,29.79
2018-09-15T13:08:38.010Z,30.25
2018-09-15T13:11:07.002Z,30.99
2018-09-15T13:13:35.964Z,31.81
2018-09-15T13:16:04.992Z,31.07
2018-09-15T13:18:33.930Z,32.70
2018-09-15T13:21:02.970Z,30.62
2018-09-15T13:23:31.987Z,30.42
2018-09-15T13:26:00.932Z,30.70
2018-09-15T13:28:29.929Z,32.66
2018-09-15T13:30:58.856Z,32.79
2018-09-15T13:33:27.917Z,33.17
2018-09-15T13:35:56.868Z,32.80
2018-09-15T13:38:25.872Z,32.02
2018-09-15T13:40:54.937Z,31.61
2018-09-15T13:43:23.906Z,32.58
2018-09-15T13:45:52.889Z,30.95
2018-09-15T13:48:21.848Z,32.90
2018-09-15T13:50:50.935Z,31.61
2018-09-15T13:53:19.943Z,33.27
2018-09-15T13:55:48.957Z,32.92
2018-09-15T13:58:17.917Z,34.02
2018-09-15T14:00:46.902Z,31.64
2018-09-15T14:03:15.872Z,34.80
2018-09-15T14:05:44.827Z,32.29
2018-09-15T14:08:13.823Z,33.32
2018-09-15T14:10:42.820Z,33.58
2018-09-15T14:13:11.791Z,33.37
2018-09-15T14:15:40.745Z,32.54
2018-09-15T14:18:10.005Z,33.54
2018-09-15T14:20:38.948Z,34.70
2018-09-15T14:23:08.745Z,33.86
2018-09-15T14:25:37.718Z,35.51
2018-09-15T14:28:07.224Z,34.30
2018-09-15T14:30:36.337Z,33.85
2018-09-15T14:33:05.307Z,33.82
2018-09-15T14:35:34.323Z,33.88
2018-09-15T14:38:03.277Z,34.66
2018-09-15T14:40:32.293Z,33.89
2018-09-15T14:43:01.256Z,34.46
2018-09-15T14:45:30.273Z,36.44
2018-09-15T14:48:00.218Z,36.71
2018-09-15T14:50:29.261Z,36.16
2018-09-15T14:52:58.246Z,35.83
2018-09-15T14:55:27.199Z,36.61
2018-09-15T14:57:56.167Z,35.60
2018-09-15T15:00:25.121Z,37.77
2018-09-15T15:02:57.589Z,37.94
2018-09-15T15:05:27.603Z,38.52
2018-09-15T15:07:56.649Z,38.58
2018-09-15T15:10:25.627Z,37.29
2018-09-15T15:12:54.613Z,39.47
2018-09-15T15:15:23.671Z,39.65
2018-09-15T15:17:52.610Z,38.01
2018-09-15T15:20:21.570Z,38.37
2018-09-15T15:22:50.492Z,38.13
2018-09-15T15:25:19.512Z,38.70
2018-09-15T15:27:48.464Z,39.21
2018-09-15T15:30:17.424Z,38.56
2018-09-15T15:32:46.409Z,40.17
2018-09-15T15:35:15.390Z,39.29
2018-09-15T15:37:44.407Z,37.69
2018-09-15T15:40:13.362Z,35.83
2018-09-15T15:42:42.320Z,36.75
2018-09-15T15:45:11.284Z,37.49
2018-09-15T15:47:40.328Z,35.11
2018-09-15T15:50:09.294Z,38.07
2018-09-15T15:52:38.239Z,37.48
2018-09-15T15:55:07.444Z,36.80
2018-09-15T15:57:36.384Z,36.98
2018-09-15T16:00:06.182Z,37.51
2018-09-15T16:02:35.210Z,37.03
2018-09-15T16:05:04.219Z,36.87
2018-09-15T16:07:33.190Z,37.24
2018-09-15T16:10:02.197Z,36.89
2018-09-15T16:12:31.174Z,37.82
2018-09-15T16:15:00.202Z,36.77
2018-09-15T16:17:29.151Z,37.01
2018-09-15T16:19:58.177Z,38.20
2018-09-15T16:22:27.159Z,39.19
2018-09-15T16:24:56.098Z,37.71
2018-09-15T16:27:25.066Z,39.28
2018-09-15T16:29:54.035Z,39.14
2018-09-15T16:32:23.015Z,39.81
2018-09-15T16:34:52.017Z,40.76
2018-09-15T16:37:21.041Z,41.68
2018-09-15T16:39:49.989Z,42.26
2018-09-15T16:42:18.958Z,43.07
2018-09-15T16:44:47.929Z,44.08
2018-09-15T16:47:17.036Z,45.01
2018-09-15T16:49:46.029Z,45.34
2018-09-15T16:52:14.970Z,45.25
2018-09-15T16:54:44.581Z,46.06
2018-09-15T16:57:13.628Z,45.92
2018-09-15T16:59:43.167Z,45.93
2018-09-15T17:02:12.166Z,47.23
2018-09-15T17:04:41.115Z,47.85
2018-09-15T17:07:10.129Z,47.91
2018-09-15T17:09:39.093Z,48.38
2018-09-15T17:12:08.057Z,49.69
2018-09-15T17:14:37.073Z,49.67
2018-09-15T17:17:06.122Z,49.75
2018-09-15T17:19:35.440Z,50.92
2018-09-15T17:22:04.532Z,50.45
2018-09-15T17:24:33.966Z,51.16
2018-09-15T17:27:02.958Z,52.13
2018-09-15T17:29:31.921Z,52.77
2018-09-15T17:32:00.893Z,52.09
2018-09-15T17:34:29.909Z,54.25
2018-09-15T17:36:58.892Z,52.21
2018-09-15T17:39:27.893Z,53.27
2018-09-15T17:41:56.862Z,52.43
2018-09-15T17:44:25.914Z,54.20
2018-09-15T17:46:54.896Z,53.96
2018-09-15T17:49:23.859Z,54.59
2018-09-15T17:51:53.086Z,54.51
2018-09-15T17:54:22.075Z,54.70
2018-09-15T17:56:51.043Z,54.66
2018-09-15T17:59:20.024Z,54.14
2018-09-15T18:01:49.381Z,53.95
2018-09-15T18:04:18.383Z,54.48
2018-09-15T18:06:47.443Z,54.30
2018-09-15T18:09:16.611Z,54.35
2018-09-15T18:11:45.676Z,55.28
2018-09-15T18:14:15.525Z,54.50
2018-09-15T18:16:45.594Z,54.48
2018-09-15T18:19:15.627Z,54.14
2018-09-15T18:21:44.683Z,54.92
2018-09-15T18:24:13.699Z,54.45
2018-09-15T18:26:42.687Z,54.77
2018-09-15T18:29:11.785Z,55.37
2018-09-15T18:31:40.997Z,55.50
2018-09-15T18:34:10.017Z,55.29
2018-09-15T18:36:39.135Z,54.75
2018-09-15T18:39:09.727Z,54.91
2018-09-15T18:41:38.725Z,55.14
2018-09-15T18:44:07.890Z,54.77
2018-09-15T18:46:37.056Z,55.55
2018-09-15T18:49:06.382Z,56.16
2018-09-15T18:51:35.491Z,55.14
2018-09-15T18:54:04.852Z,56.41
2018-09-15T18:56:33.907Z,57.08
2018-09-15T18:59:02.928Z,56.20
2018-09-15T19:01:32.014Z,57.26
2018-09-15T19:04:01.058Z,57.04
2018-09-15T19:06:30.073Z,57.22
2018-09-15T19:08:59.067Z,56.29
2018-09-15T19:11:28.131Z,57.49
2018-09-15T19:13:57.148Z,56.77
2018-09-15T19:16:26.204Z,55.89
2018-09-15T19:18:55.355Z,55.09
2018-09-15T19:21:24.346Z,54.76
2018-09-15T19:23:53.344Z,54.84
2018-09-15T19:26:22.494Z,55.63
2018-09-15T19:28:51.592Z,55.33
2018-09-15T19:31:20.955Z,55.19
2018-09-15T19:33:50.393Z,55.81
2018-09-15T19:36:19.415Z,56.84
2018-09-15T19:38:48.718Z,55.76
2018-09-15T19:41:17.763Z,55.32
2018-09-15T19:43:46.834Z,55.20
2018-09-15T19:46:15.828Z,56.18
2018-09-15T19:48:44.835Z,55.47
2018-09-15T19:51:13.873Z,55.23
2018-09-15T19:53:42.871Z,55.13
2018-09-15T19:56:11.945Z,55.60
2018-09-15T19:58:40.952Z,55.39
2018-09-15T20:01:09.968Z,54.78
2018-09-15T20:03:39.036Z,54.83
2018-09-15T20:06:08.090Z,54.13
2018-09-15T20:08:37.101Z,54.21
2018-09-15T20:11:06.191Z,53.69
2018-09-15T20:13:35.172Z,52.76
2018-09-15T20:16:02.678Z,53.43
2018-09-15T20:18:30.211Z,53.11
2018-09-15T20:20:57.744Z,54.14
2018-09-15T20:23:26.697Z,53.08
2018-09-15T20:25:55.733Z,54.05
2018-09-15T20:28:24.695Z,54.25
2018-09-15T20:30:53.659Z,53.20
2018-09-15T20:33:22.713Z,53.84
2018-09-15T20:35:51.652Z,54.51
2018-09-15T20:38:20.648Z,54.94
2018-09-15T20:40:49.665Z,55.33
2018-09-15T20:43:18.623Z,55.11
2018-09-15T20:45:47.710Z,56.33
2018-09-15T20:48:16.741Z,56.20
2018-09-15T20:50:45.759Z,57.15
2018-09-15T20:53:14.751Z,56.10
2018-09-15T20:55:43.754Z,57.11
2018-09-15T20:58:12.721Z,56.82
2018-09-15T21:00:41.732Z,56.58
2018-09-15T21:03:10.731Z,56.60
2018-09-15T21:05:39.711Z,58.07
2018-09-15T21:08:08.712Z,58.19
2018-09-15T21:10:37.755Z,58.24
2018-09-15T21:13:06.846Z,58.71
2018-09-15T21:15:35.848Z,60.17
2018-09-15T21:18:04.878Z,60.18
2018-09-15T21:20:33.882Z,60.74
2018-09-15T21:23:02.847Z,60.88
2018-09-15T21:25:31.803Z,60.64
2018-09-15T21:28:00.763Z,61.01
2018-09-15T21:30:29.724Z,61.41
2018-09-15T21:32:58.777Z,61.36
2018-09-15T21:35:27.737Z,62.40
2018-09-15T21:37:56.711Z,63.16
2018-09-15T21:40:25.703Z,63.18
2018-09-15T21:42:54.676Z,64.00
2018-09-15T21:45:23.676Z,63.09
2018-09-15T21:47:52.637Z,63.78
2018-09-15T21:50:21.615Z,64.32
2018-09-15T21:52:50.569Z,64.39
2018-09-15T21:55:19.647Z,63.75
2018-09-15T21:57:48.602Z,64.54
2018-09-15T22:00:17.566Z,64.72
2018-09-15T22:02:46.549Z,65.57
2018-09-15T22:05:15.576Z,65.56
2018-09-15T22:07:44.555Z,65.51
2018-09-15T22:10:13.505Z,66.02
2018-09-15T22:12:42.473Z,66.81
2018-09-15T22:15:20.703Z,66.21
2018-09-15T22:17:49.755Z,66.91
2018-09-15T22:20:18.723Z,66.48
2018-09-15T22:22:47.764Z,66.25
2018-09-15T22:25:16.911Z,65.95
2018-09-15T22:27:45.956Z,66.79
2018-09-15T22:30:14.907Z,67.90
2018-09-15T22:32:44.000Z,67.31
2018-09-15T22:35:13.009Z,67.23
2018-09-15T22:37:41.961Z,67.42
2018-09-15T22:40:11.096Z,67.70
2018-09-15T22:42:40.281Z,67.81
2018-09-15T22:45:09.238Z,67.68
2018-09-15T22:47:38.204Z,69.52
2018-09-15T22:50:07.238Z,68.99
2018-09-15T22:52:36.231Z,68.46
2018-09-15T22:55:05.323Z,68.68
2018-09-15T22:57:34.488Z,69.08
2018-09-15T23:00:03.444Z,69.30
2018-09-15T23:02:32.525Z,68.61
2018-09-15T23:05:01.480Z,68.88
2018-09-15T23:07:30.459Z,68.21
2018-09-15T23:09:59.413Z,67.31
2018-09-15T23:12:28.437Z,67.89
2018-09-15T23:14:57.412Z,68.17
2018-09-15T23:17:26.449Z,68.17
2018-09-15T23:19:55.426Z,69.37
2018-09-15T23:22:24.384Z,68.88
2018-09-15T23:24:53.361Z,69.95
2018-09-15T23:27:22.313Z,69.47
2018-09-15T23:29:51.323Z,70.19
2018-09-15T23:32:20.267Z,69.89
2018-09-15T23:34:49.375Z,70.34
2018-09-15T23:37:18.356Z,69.99
2018-09-15T23:39:47.318Z,70.74
2018-09-15T23:42:16.279Z,70.28
2018-09-15T23:44:45.263Z,70.92
2018-09-15T23:47:14.312Z,71.07
2018-09-15T23:49:43.260Z,70.85
2018-09-15T23:52:12.214Z,72.02
2018-09-15T23:54:41.162Z,71.41
2018-09-15T23:57:10.136Z,70.59
2018-09-15T23:59:39.149Z,71.43
